sensor_id;sensor_type;location;lat;lon;timestamp;temperature;humidity
46488;DHT22;32202;48.780;9.204;2023-04-03T00:00:23;5.60;83.70
46488;DHT22;32202;48.780;9.204;2023-04-03T00:02:48;5.60;83.90
46488;DHT22;32202;48.780;9.204;2023-04-03T00:05:14;5.60;84.20
46488;DHT22;32202;48.780;9.204;2023-04-03T00:07:39;5.60;83.80
46488;DHT22;32202;48.780;9.204;2023-04-03T00:10:05;5.60;83.80
46488;DHT22;32202;48.780;9.204;2023-04-03T00:12:31;5.60;83.70
46488;DHT22;32202;48.780;9.204;2023-04-03T00:14:56;5.60;83.50
46488;DHT22;32202;48.780;9.204;2023-04-03T00:17:22;5.60;83.70
46488;DHT22;32202;48.780;9.204;2023-04-03T00:19:47;5.60;84.10
46488;DHT22;32202;48.780;9.204;2023-04-03T00:22:13;5.60;83.70
46488;DHT22;32202;48.780;9.204;2023-04-03T00:24:38;5.50;84.00
46488;DHT22;32202;48.780;9.204;2023-04-03T00:27:04;5.50;83.70
46488;DHT22;32202;48.780;9.204;2023-04-03T00:29:29;5.60;84.30
46488;DHT22;32202;48.780;9.204;2023-04-03T00:31:55;5.60;83.90
46488;DHT22;32202;48.780;9.204;2023-04-03T00:34:20;5.50;84.20
46488;DHT22;32202;48.780;9.204;2023-04-03T00:36:46;5.50;84.00
46488;DHT22;32202;48.780;9.204;2023-04-03T00:39:11;5.50;83.80
46488;DHT22;32202;48.780;9.204;2023-04-03T00:41:37;5.50;84.20
46488;DHT22;32202;48.780;9.204;2023-04-03T00:44:18;5.50;83.70
46488;DHT22;32202;48.780;9.204;2023-04-03T00:46:43;5.50;83.40
46488;DHT22;32202;48.780;9.204;2023-04-03T00:49:09;5.50;83.50
46488;DHT22;32202;48.780;9.204;2023-04-03T00:51:35;5.60;83.40
46488;DHT22;32202;48.780;9.204;2023-04-03T00:54:01;5.60;83.10
46488;DHT22;32202;48.780;9.204;2023-04-03T00:56:28;5.60;83.20
46488;DHT22;32202;48.780;9.204;2023-04-03T00:58:57;5.60;83.60
46488;DHT22;32202;48.780;9.204;2023-04-03T01:01:25;5.60;83.50
46488;DHT22;32202;48.780;9.204;2023-04-03T01:03:51;5.50;83.50
46488;DHT22;32202;48.780;9.204;2023-04-03T01:06:18;5.50;83.60
46488;DHT22;32202;48.780;9.204;2023-04-03T01:08:45;5.50;83.60
46488;DHT22;32202;48.780;9.204;2023-04-03T01:11:13;5.50;84.00
46488;DHT22;32202;48.780;9.204;2023-04-03T01:13:38;5.60;83.80
46488;DHT22;32202;48.780;9.204;2023-04-03T01:16:04;5.60;83.90
46488;DHT22;32202;48.780;9.204;2023-04-03T01:18:30;5.50;84.20
46488;DHT22;32202;48.780;9.204;2023-04-03T01:23:46;5.40;84.20
46488;DHT22;32202;48.780;9.204;2023-04-03T01:26:14;5.40;84.20
46488;DHT22;32202;48.780;9.204;2023-04-03T01:28:40;5.30;84.60
46488;DHT22;32202;48.780;9.204;2023-04-03T01:33:37;5.30;85.00
46488;DHT22;32202;48.780;9.204;2023-04-03T01:36:03;5.30;85.10
46488;DHT22;32202;48.780;9.204;2023-04-03T01:38:28;5.30;85.00
46488;DHT22;32202;48.780;9.204;2023-04-03T01:40:54;5.30;85.00
46488;DHT22;32202;48.780;9.204;2023-04-03T01:43:20;5.30;85.40
46488;DHT22;32202;48.780;9.204;2023-04-03T01:45:45;5.20;85.60
46488;DHT22;32202;48.780;9.204;2023-04-03T01:48:12;5.30;85.40
46488;DHT22;32202;48.780;9.204;2023-04-03T01:50:37;5.30;85.40
46488;DHT22;32202;48.780;9.204;2023-04-03T01:53:03;5.30;85.20
46488;DHT22;32202;48.780;9.204;2023-04-03T01:55:28;5.30;84.80
46488;DHT22;32202;48.780;9.204;2023-04-03T01:57:54;5.20;84.60
46488;DHT22;32202;48.780;9.204;2023-04-03T02:00:20;5.20;84.80
46488;DHT22;32202;48.780;9.204;2023-04-03T02:02:45;5.20;85.00
46488;DHT22;32202;48.780;9.204;2023-04-03T02:05:10;5.20;85.40
46488;DHT22;32202;48.780;9.204;2023-04-03T02:07:36;5.20;85.50
46488;DHT22;32202;48.780;9.204;2023-04-03T02:10:02;5.20;85.30
46488;DHT22;32202;48.780;9.204;2023-04-03T02:12:27;5.20;84.60
46488;DHT22;32202;48.780;9.204;2023-04-03T02:14:53;5.20;85.20
46488;DHT22;32202;48.780;9.204;2023-04-03T02:17:18;5.20;84.70
46488;DHT22;32202;48.780;9.204;2023-04-03T02:19:44;5.30;84.90
46488;DHT22;32202;48.780;9.204;2023-04-03T02:22:09;5.30;84.50
46488;DHT22;32202;48.780;9.204;2023-04-03T02:24:35;5.20;84.40
46488;DHT22;32202;48.780;9.204;2023-04-03T02:27:00;5.20;84.50
46488;DHT22;32202;48.780;9.204;2023-04-03T02:29:26;5.20;83.50
46488;DHT22;32202;48.780;9.204;2023-04-03T02:31:51;5.20;83.90
46488;DHT22;32202;48.780;9.204;2023-04-03T02:34:17;5.20;84.30
46488;DHT22;32202;48.780;9.204;2023-04-03T02:36:42;5.20;84.40
46488;DHT22;32202;48.780;9.204;2023-04-03T02:39:08;5.20;84.30
46488;DHT22;32202;48.780;9.204;2023-04-03T02:41:34;5.20;84.00
46488;DHT22;32202;48.780;9.204;2023-04-03T02:44:03;5.20;84.40
46488;DHT22;32202;48.780;9.204;2023-04-03T02:46:28;5.30;83.80
46488;DHT22;32202;48.780;9.204;2023-04-03T02:48:54;5.30;83.10
46488;DHT22;32202;48.780;9.204;2023-04-03T02:51:19;5.30;83.40
46488;DHT22;32202;48.780;9.204;2023-04-03T02:53:45;5.30;82.40
46488;DHT22;32202;48.780;9.204;2023-04-03T02:56:10;5.30;81.80
46488;DHT22;32202;48.780;9.204;2023-04-03T02:58:36;5.30;81.40
46488;DHT22;32202;48.780;9.204;2023-04-03T03:01:01;5.20;81.90
46488;DHT22;32202;48.780;9.204;2023-04-03T03:03:27;5.30;81.50
46488;DHT22;32202;48.780;9.204;2023-04-03T03:06:03;5.20;80.80
46488;DHT22;32202;48.780;9.204;2023-04-03T03:08:29;5.20;81.10
46488;DHT22;32202;48.780;9.204;2023-04-03T03:10:54;5.30;80.90
46488;DHT22;32202;48.780;9.204;2023-04-03T03:13:20;5.40;80.60
46488;DHT22;32202;48.780;9.204;2023-04-03T03:15:45;5.30;80.60
46488;DHT22;32202;48.780;9.204;2023-04-03T03:18:10;5.30;80.20
46488;DHT22;32202;48.780;9.204;2023-04-03T03:20:36;5.20;79.70
46488;DHT22;32202;48.780;9.204;2023-04-03T03:23:01;5.20;81.20
46488;DHT22;32202;48.780;9.204;2023-04-03T03:25:27;5.20;80.40
46488;DHT22;32202;48.780;9.204;2023-04-03T03:27:52;5.20;80.20
46488;DHT22;32202;48.780;9.204;2023-04-03T03:30:18;5.20;80.40
46488;DHT22;32202;48.780;9.204;2023-04-03T03:32:43;5.10;80.60
46488;DHT22;32202;48.780;9.204;2023-04-03T03:35:09;5.10;80.90
46488;DHT22;32202;48.780;9.204;2023-04-03T03:37:34;5.20;81.20
46488;DHT22;32202;48.780;9.204;2023-04-03T03:40:00;5.20;81.20
46488;DHT22;32202;48.780;9.204;2023-04-03T03:42:25;5.20;80.70
46488;DHT22;32202;48.780;9.204;2023-04-03T03:44:51;5.20;80.40
46488;DHT22;32202;48.780;9.204;2023-04-03T03:47:17;5.30;80.80
46488;DHT22;32202;48.780;9.204;2023-04-03T03:49:42;5.20;80.20
46488;DHT22;32202;48.780;9.204;2023-04-03T03:52:08;5.30;79.60
46488;DHT22;32202;48.780;9.204;2023-04-03T03:54:36;5.30;79.20
46488;DHT22;32202;48.780;9.204;2023-04-03T03:57:02;5.20;78.20
46488;DHT22;32202;48.780;9.204;2023-04-03T03:59:28;5.20;78.20
46488;DHT22;32202;48.780;9.204;2023-04-03T04:01:53;5.20;77.30
46488;DHT22;32202;48.780;9.204;2023-04-03T04:04:19;5.10;78.10
46488;DHT22;32202;48.780;9.204;2023-04-03T04:06:45;5.00;78.50
46488;DHT22;32202;48.780;9.204;2023-04-03T04:09:10;5.00;78.50
46488;DHT22;32202;48.780;9.204;2023-04-03T04:11:36;5.10;78.10
46488;DHT22;32202;48.780;9.204;2023-04-03T04:14:01;5.10;78.40
46488;DHT22;32202;48.780;9.204;2023-04-03T04:16:27;5.10;78.80
46488;DHT22;32202;48.780;9.204;2023-04-03T04:18:52;5.10;78.40
46488;DHT22;32202;48.780;9.204;2023-04-03T04:21:18;5.10;78.00
46488;DHT22;32202;48.780;9.204;2023-04-03T04:23:43;5.10;78.30
46488;DHT22;32202;48.780;9.204;2023-04-03T04:26:09;5.20;78.20
46488;DHT22;32202;48.780;9.204;2023-04-03T04:28:34;5.10;77.40
46488;DHT22;32202;48.780;9.204;2023-04-03T04:31:00;5.20;76.80
46488;DHT22;32202;48.780;9.204;2023-04-03T04:33:25;5.20;76.40
46488;DHT22;32202;48.780;9.204;2023-04-03T04:35:51;5.20;76.10
46488;DHT22;32202;48.780;9.204;2023-04-03T04:38:17;5.20;76.60
46488;DHT22;32202;48.780;9.204;2023-04-03T04:40:42;5.20;76.20
46488;DHT22;32202;48.780;9.204;2023-04-03T04:43:08;5.20;75.90
46488;DHT22;32202;48.780;9.204;2023-04-03T04:45:33;5.30;75.50
46488;DHT22;32202;48.780;9.204;2023-04-03T04:47:59;5.30;75.50
46488;DHT22;32202;48.780;9.204;2023-04-03T04:50:24;5.20;75.80
46488;DHT22;32202;48.780;9.204;2023-04-03T04:52:50;5.30;78.10
46488;DHT22;32202;48.780;9.204;2023-04-03T04:55:15;5.30;76.10
46488;DHT22;32202;48.780;9.204;2023-04-03T04:57:41;5.30;76.10
46488;DHT22;32202;48.780;9.204;2023-04-03T05:00:06;5.40;75.40
46488;DHT22;32202;48.780;9.204;2023-04-03T05:02:32;5.40;75.20
46488;DHT22;32202;48.780;9.204;2023-04-03T05:04:58;5.40;75.20
46488;DHT22;32202;48.780;9.204;2023-04-03T05:07:24;5.40;73.40
46488;DHT22;32202;48.780;9.204;2023-04-03T05:09:49;5.40;73.30
46488;DHT22;32202;48.780;9.204;2023-04-03T05:12:16;5.30;72.90
46488;DHT22;32202;48.780;9.204;2023-04-03T05:14:41;5.40;73.50
46488;DHT22;32202;48.780;9.204;2023-04-03T05:17:07;5.50;73.30
46488;DHT22;32202;48.780;9.204;2023-04-03T05:19:32;5.50;73.00
46488;DHT22;32202;48.780;9.204;2023-04-03T05:21:58;5.60;73.20
46488;DHT22;32202;48.780;9.204;2023-04-03T05:24:23;5.60;72.70
46488;DHT22;32202;48.780;9.204;2023-04-03T05:26:49;5.70;72.90
46488;DHT22;32202;48.780;9.204;2023-04-03T05:29:14;5.70;72.60
46488;DHT22;32202;48.780;9.204;2023-04-03T05:31:40;5.60;72.80
46488;DHT22;32202;48.780;9.204;2023-04-03T05:34:05;5.60;72.90
46488;DHT22;32202;48.780;9.204;2023-04-03T05:36:31;5.60;72.90
46488;DHT22;32202;48.780;9.204;2023-04-03T05:38:56;5.60;73.20
46488;DHT22;32202;48.780;9.204;2023-04-03T05:41:23;5.60;73.20
46488;DHT22;32202;48.780;9.204;2023-04-03T05:43:49;5.60;73.80
46488;DHT22;32202;48.780;9.204;2023-04-03T05:46:15;5.70;72.60
46488;DHT22;32202;48.780;9.204;2023-04-03T05:48:41;5.80;73.00
46488;DHT22;32202;48.780;9.204;2023-04-03T05:51:09;5.80;72.60
46488;DHT22;32202;48.780;9.204;2023-04-03T05:53:38;6.00;72.50
46488;DHT22;32202;48.780;9.204;2023-04-03T05:56:04;6.10;71.70
46488;DHT22;32202;48.780;9.204;2023-04-03T05:58:29;6.20;72.00
46488;DHT22;32202;48.780;9.204;2023-04-03T06:00:55;6.20;70.90
46488;DHT22;32202;48.780;9.204;2023-04-03T06:03:21;6.30;70.50
46488;DHT22;32202;48.780;9.204;2023-04-03T06:05:46;6.30;70.30
46488;DHT22;32202;48.780;9.204;2023-04-03T06:08:12;6.30;70.10
46488;DHT22;32202;48.780;9.204;2023-04-03T06:10:38;6.60;69.50
46488;DHT22;32202;48.780;9.204;2023-04-03T06:13:03;6.80;68.90
46488;DHT22;32202;48.780;9.204;2023-04-03T06:15:29;7.00;68.50
46488;DHT22;32202;48.780;9.204;2023-04-03T06:17:54;7.20;67.60
46488;DHT22;32202;48.780;9.204;2023-04-03T06:20:20;7.20;66.80
46488;DHT22;32202;48.780;9.204;2023-04-03T06:22:46;7.20;67.20
46488;DHT22;32202;48.780;9.204;2023-04-03T06:25:11;7.10;67.40
46488;DHT22;32202;48.780;9.204;2023-04-03T06:27:37;7.00;67.80
46488;DHT22;32202;48.780;9.204;2023-04-03T06:30:03;7.00;68.10
46488;DHT22;32202;48.780;9.204;2023-04-03T06:32:28;6.90;68.30
46488;DHT22;32202;48.780;9.204;2023-04-03T06:34:54;6.90;68.60
46488;DHT22;32202;48.780;9.204;2023-04-03T06:37:21;6.90;68.40
46488;DHT22;32202;48.780;9.204;2023-04-03T06:39:47;6.80;69.00
46488;DHT22;32202;48.780;9.204;2023-04-03T06:42:12;6.80;69.10
46488;DHT22;32202;48.780;9.204;2023-04-03T06:44:38;6.80;68.80
46488;DHT22;32202;48.780;9.204;2023-04-03T06:47:04;6.80;69.20
46488;DHT22;32202;48.780;9.204;2023-04-03T06:49:29;6.80;69.20
46488;DHT22;32202;48.780;9.204;2023-04-03T06:51:55;6.90;68.80
46488;DHT22;32202;48.780;9.204;2023-04-03T06:54:21;6.90;68.70
46488;DHT22;32202;48.780;9.204;2023-04-03T06:56:47;6.90;68.80
46488;DHT22;32202;48.780;9.204;2023-04-03T06:59:13;7.00;68.60
46488;DHT22;32202;48.780;9.204;2023-04-03T07:01:41;6.90;68.20
46488;DHT22;32202;48.780;9.204;2023-04-03T07:04:07;7.00;68.80
46488;DHT22;32202;48.780;9.204;2023-04-03T07:06:33;7.00;68.40
46488;DHT22;32202;48.780;9.204;2023-04-03T07:08:59;7.10;68.20
46488;DHT22;32202;48.780;9.204;2023-04-03T07:11:25;7.20;68.20
46488;DHT22;32202;48.780;9.204;2023-04-03T07:13:51;7.20;67.70
46488;DHT22;32202;48.780;9.204;2023-04-03T07:16:17;7.30;68.00
46488;DHT22;32202;48.780;9.204;2023-04-03T07:18:43;7.20;68.10
46488;DHT22;32202;48.780;9.204;2023-04-03T07:21:08;7.20;68.20
46488;DHT22;32202;48.780;9.204;2023-04-03T07:23:34;7.20;67.70
46488;DHT22;32202;48.780;9.204;2023-04-03T07:25:59;7.30;67.90
46488;DHT22;32202;48.780;9.204;2023-04-03T07:28:24;7.50;67.90
46488;DHT22;32202;48.780;9.204;2023-04-03T07:30:59;7.70;67.10
46488;DHT22;32202;48.780;9.204;2023-04-03T07:33:25;7.70;66.80
46488;DHT22;32202;48.780;9.204;2023-04-03T07:35:50;7.80;66.20
46488;DHT22;32202;48.780;9.204;2023-04-03T07:38:16;8.00;66.00
46488;DHT22;32202;48.780;9.204;2023-04-03T07:40:45;8.20;65.70
46488;DHT22;32202;48.780;9.204;2023-04-03T07:43:11;8.50;64.90
46488;DHT22;32202;48.780;9.204;2023-04-03T07:45:36;8.60;64.60
46488;DHT22;32202;48.780;9.204;2023-04-03T07:48:02;8.70;63.80
46488;DHT22;32202;48.780;9.204;2023-04-03T07:50:27;9.00;63.00
46488;DHT22;32202;48.780;9.204;2023-04-03T07:52:55;9.00;62.70
46488;DHT22;32202;48.780;9.204;2023-04-03T07:55:23;9.00;61.90
46488;DHT22;32202;48.780;9.204;2023-04-03T07:57:48;9.00;62.60
46488;DHT22;32202;48.780;9.204;2023-04-03T08:00:14;9.10;61.90
46488;DHT22;32202;48.780;9.204;2023-04-03T08:02:39;8.90;62.30
46488;DHT22;32202;48.780;9.204;2023-04-03T08:05:05;9.10;62.50
46488;DHT22;32202;48.780;9.204;2023-04-03T08:07:31;9.10;61.70
46488;DHT22;32202;48.780;9.204;2023-04-03T08:09:56;9.10;61.00
46488;DHT22;32202;48.780;9.204;2023-04-03T08:12:22;9.10;61.60
46488;DHT22;32202;48.780;9.204;2023-04-03T08:14:47;9.30;62.10
46488;DHT22;32202;48.780;9.204;2023-04-03T08:17:13;9.50;61.40
46488;DHT22;32202;48.780;9.204;2023-04-03T08:19:39;9.40;62.00
46488;DHT22;32202;48.780;9.204;2023-04-03T08:22:05;9.40;62.10
46488;DHT22;32202;48.780;9.204;2023-04-03T08:24:31;9.40;61.60
46488;DHT22;32202;48.780;9.204;2023-04-03T08:26:57;9.30;61.90
46488;DHT22;32202;48.780;9.204;2023-04-03T08:29:22;9.30;62.00
46488;DHT22;32202;48.780;9.204;2023-04-03T08:31:48;9.30;61.70
46488;DHT22;32202;48.780;9.204;2023-04-03T08:34:15;9.30;62.30
46488;DHT22;32202;48.780;9.204;2023-04-03T08:36:41;9.20;62.20
46488;DHT22;32202;48.780;9.204;2023-04-03T08:39:07;9.10;62.40
46488;DHT22;32202;48.780;9.204;2023-04-03T08:41:37;9.10;62.70
46488;DHT22;32202;48.780;9.204;2023-04-03T08:49:31;9.30;62.70
46488;DHT22;32202;48.780;9.204;2023-04-03T08:51:58;9.70;61.70
46488;DHT22;32202;48.780;9.204;2023-04-03T08:54:31;9.70;60.80
46488;DHT22;32202;48.780;9.204;2023-04-03T08:56:59;10.10;59.70
46488;DHT22;32202;48.780;9.204;2023-04-03T08:59:29;10.20;59.50
46488;DHT22;32202;48.780;9.204;2023-04-03T09:01:57;10.20;59.20
46488;DHT22;32202;48.780;9.204;2023-04-03T09:04:23;10.30;59.40
46488;DHT22;32202;48.780;9.204;2023-04-03T09:06:55;10.30;59.30
46488;DHT22;32202;48.780;9.204;2023-04-03T09:09:33;10.40;59.40
46488;DHT22;32202;48.780;9.204;2023-04-03T09:12:11;10.50;58.60
46488;DHT22;32202;48.780;9.204;2023-04-03T09:14:52;10.50;58.10
46488;DHT22;32202;48.780;9.204;2023-04-03T09:19:49;10.60;57.70
46488;DHT22;32202;48.780;9.204;2023-04-03T09:22:25;11.00;56.80
46488;DHT22;32202;48.780;9.204;2023-04-03T09:27:25;10.90;56.10
46488;DHT22;32202;48.780;9.204;2023-04-03T09:29:52;10.70;56.90
46488;DHT22;32202;48.780;9.204;2023-04-03T09:32:31;10.40;56.10
46488;DHT22;32202;48.780;9.204;2023-04-03T09:34:59;10.40;56.00
46488;DHT22;32202;48.780;9.204;2023-04-03T09:39:58;10.20;57.90
46488;DHT22;32202;48.780;9.204;2023-04-03T09:42:28;10.10;57.80
46488;DHT22;32202;48.780;9.204;2023-04-03T09:44:57;10.00;57.20
46488;DHT22;32202;48.780;9.204;2023-04-03T09:47:35;9.80;57.50
46488;DHT22;32202;48.780;9.204;2023-04-03T09:52:40;9.90;58.40
46488;DHT22;32202;48.780;9.204;2023-04-03T09:55:07;9.80;57.70
46488;DHT22;32202;48.780;9.204;2023-04-03T09:57:33;9.70;57.60
46488;DHT22;32202;48.780;9.204;2023-04-03T10:00:00;9.60;57.90
46488;DHT22;32202;48.780;9.204;2023-04-03T10:04:51;9.30;59.00
46488;DHT22;32202;48.780;9.204;2023-04-03T10:07:25;9.10;59.50
46488;DHT22;32202;48.780;9.204;2023-04-03T10:09:55;8.90;59.30
46488;DHT22;32202;48.780;9.204;2023-04-03T10:12:21;8.80;59.60
46488;DHT22;32202;48.780;9.204;2023-04-03T10:15:00;8.80;59.80
46488;DHT22;32202;48.780;9.204;2023-04-03T10:19:55;9.00;59.40
46488;DHT22;32202;48.780;9.204;2023-04-03T10:27:45;9.50;58.50
46488;DHT22;32202;48.780;9.204;2023-04-03T10:41:15;9.30;58.80
46488;DHT22;32202;48.780;9.204;2023-04-03T10:46:33;9.10;59.20
46488;DHT22;32202;48.780;9.204;2023-04-03T10:51:47;9.30;59.30
46488;DHT22;32202;48.780;9.204;2023-04-03T10:54:16;9.50;57.80
46488;DHT22;32202;48.780;9.204;2023-04-03T10:56:47;9.60;57.20
46488;DHT22;32202;48.780;9.204;2023-04-03T10:59:16;9.60;57.60
46488;DHT22;32202;48.780;9.204;2023-04-03T11:01:44;9.60;57.00
46488;DHT22;32202;48.780;9.204;2023-04-03T11:04:11;9.40;56.90
46488;DHT22;32202;48.780;9.204;2023-04-03T11:06:39;9.40;57.10
46488;DHT22;32202;48.780;9.204;2023-04-03T11:11:47;9.50;56.40
46488;DHT22;32202;48.780;9.204;2023-04-03T11:14:20;9.50;56.10
46488;DHT22;32202;48.780;9.204;2023-04-03T11:16:48;9.80;55.40
46488;DHT22;32202;48.780;9.204;2023-04-03T11:19:17;10.00;54.90
46488;DHT22;32202;48.780;9.204;2023-04-03T11:24:32;10.20;53.70
46488;DHT22;32202;48.780;9.204;2023-04-03T11:26:58;10.00;52.40
46488;DHT22;32202;48.780;9.204;2023-04-03T11:29:32;9.90;53.20
46488;DHT22;32202;48.780;9.204;2023-04-03T11:36:59;9.50;54.60
46488;DHT22;32202;48.780;9.204;2023-04-03T11:39:30;9.40;55.20
46488;DHT22;32202;48.780;9.204;2023-04-03T11:42:16;9.40;55.70
46488;DHT22;32202;48.780;9.204;2023-04-03T11:44:43;9.40;55.40
46488;DHT22;32202;48.780;9.204;2023-04-03T11:47:09;9.50;55.10
46488;DHT22;32202;48.780;9.204;2023-04-03T11:57:50;9.40;54.60
46488;DHT22;32202;48.780;9.204;2023-04-03T12:00:46;9.40;54.00
46488;DHT22;32202;48.780;9.204;2023-04-03T12:05:58;9.50;54.10
46488;DHT22;32202;48.780;9.204;2023-04-03T12:21:11;9.20;54.80
46488;DHT22;32202;48.780;9.204;2023-04-03T12:23:55;9.30;54.90
46488;DHT22;32202;48.780;9.204;2023-04-03T12:26:22;9.30;55.00
46488;DHT22;32202;48.780;9.204;2023-04-03T12:28:50;9.40;55.00
46488;DHT22;32202;48.780;9.204;2023-04-03T12:31:18;9.60;54.10
46488;DHT22;32202;48.780;9.204;2023-04-03T12:33:57;9.60;54.50
46488;DHT22;32202;48.780;9.204;2023-04-03T12:36:30;9.70;54.00
46488;DHT22;32202;48.780;9.204;2023-04-03T12:39:04;9.70;54.10
46488;DHT22;32202;48.780;9.204;2023-04-03T12:41:42;9.80;53.90
46488;DHT22;32202;48.780;9.204;2023-04-03T12:44:13;9.60;52.40
46488;DHT22;32202;48.780;9.204;2023-04-03T12:46:43;9.60;52.50
46488;DHT22;32202;48.780;9.204;2023-04-03T12:51:51;9.70;52.10
46488;DHT22;32202;48.780;9.204;2023-04-03T12:54:25;9.80;52.50
46488;DHT22;32202;48.780;9.204;2023-04-03T12:56:52;9.90;52.70
46488;DHT22;32202;48.780;9.204;2023-04-03T12:59:33;10.00;52.30
46488;DHT22;32202;48.780;9.204;2023-04-03T13:02:00;10.30;51.40
46488;DHT22;32202;48.780;9.204;2023-04-03T13:04:29;10.50;51.10
46488;DHT22;32202;48.780;9.204;2023-04-03T13:06:55;10.90;50.60
46488;DHT22;32202;48.780;9.204;2023-04-03T13:09:22;11.90;49.10
46488;DHT22;32202;48.780;9.204;2023-04-03T13:11:49;13.00;47.00
46488;DHT22;32202;48.780;9.204;2023-04-03T13:14:16;13.50;45.30
46488;DHT22;32202;48.780;9.204;2023-04-03T13:16:42;13.40;44.90
46488;DHT22;32202;48.780;9.204;2023-04-03T13:19:17;13.40;44.60
46488;DHT22;32202;48.780;9.204;2023-04-03T13:21:43;12.50;44.20
46488;DHT22;32202;48.780;9.204;2023-04-03T13:24:09;11.70;45.60
46488;DHT22;32202;48.780;9.204;2023-04-03T13:26:37;11.20;46.80
46488;DHT22;32202;48.780;9.204;2023-04-03T13:29:05;11.20;46.70
46488;DHT22;32202;48.780;9.204;2023-04-03T13:31:32;11.00;47.40
46488;DHT22;32202;48.780;9.204;2023-04-03T13:34:16;11.10;47.90
46488;DHT22;32202;48.780;9.204;2023-04-03T13:36:54;11.30;47.00
46488;DHT22;32202;48.780;9.204;2023-04-03T13:41:54;11.60;46.80
46488;DHT22;32202;48.780;9.204;2023-04-03T13:49:34;14.70;42.30
46488;DHT22;32202;48.780;9.204;2023-04-03T13:52:03;15.00;41.90
46488;DHT22;32202;48.780;9.204;2023-04-03T13:54:30;14.90;41.20
46488;DHT22;32202;48.780;9.204;2023-04-03T13:56:57;14.40;41.40
46488;DHT22;32202;48.780;9.204;2023-04-03T14:04:19;13.50;42.80
46488;DHT22;32202;48.780;9.204;2023-04-03T14:06:45;13.40;43.40
46488;DHT22;32202;48.780;9.204;2023-04-03T14:09:11;13.10;43.50
46488;DHT22;32202;48.780;9.204;2023-04-03T14:11:37;12.70;44.10
46488;DHT22;32202;48.780;9.204;2023-04-03T14:14:06;12.40;45.20
46488;DHT22;32202;48.780;9.204;2023-04-03T14:16:38;11.90;45.10
46488;DHT22;32202;48.780;9.204;2023-04-03T14:19:03;11.40;46.10
46488;DHT22;32202;48.780;9.204;2023-04-03T14:21:29;11.20;46.50
46488;DHT22;32202;48.780;9.204;2023-04-03T14:23:54;11.00;46.80
46488;DHT22;32202;48.780;9.204;2023-04-03T14:26:21;11.10;47.10
46488;DHT22;32202;48.780;9.204;2023-04-03T14:28:48;10.90;47.50
46488;DHT22;32202;48.780;9.204;2023-04-03T14:31:15;10.90;47.90
46488;DHT22;32202;48.780;9.204;2023-04-03T14:33:41;10.90;47.70
46488;DHT22;32202;48.780;9.204;2023-04-03T14:36:40;10.90;47.30
46488;DHT22;32202;48.780;9.204;2023-04-03T14:38:58;12.00;46.10
46488;DHT22;32202;48.780;9.204;2023-04-03T14:41:25;13.60;43.70
46488;DHT22;32202;48.780;9.204;2023-04-03T14:43:51;14.40;41.60
46488;DHT22;32202;48.780;9.204;2023-04-03T14:46:28;14.60;41.00
46488;DHT22;32202;48.780;9.204;2023-04-03T14:48:54;14.20;40.80
46488;DHT22;32202;48.780;9.204;2023-04-03T14:51:20;13.70;41.90
46488;DHT22;32202;48.780;9.204;2023-04-03T14:53:45;13.20;42.50
46488;DHT22;32202;48.780;9.204;2023-04-03T14:56:12;12.70;43.30
46488;DHT22;32202;48.780;9.204;2023-04-03T14:58:38;12.20;43.90
46488;DHT22;32202;48.780;9.204;2023-04-03T15:01:04;11.90;44.50
46488;DHT22;32202;48.780;9.204;2023-04-03T15:03:29;11.50;45.20
46488;DHT22;32202;48.780;9.204;2023-04-03T15:05:55;11.30;45.40
46488;DHT22;32202;48.780;9.204;2023-04-03T15:08:22;11.10;45.20
46488;DHT22;32202;48.780;9.204;2023-04-03T15:10:49;11.10;45.20
46488;DHT22;32202;48.780;9.204;2023-04-03T15:13:15;11.00;45.50
46488;DHT22;32202;48.780;9.204;2023-04-03T15:15:41;11.00;46.10
46488;DHT22;32202;48.780;9.204;2023-04-03T15:18:06;10.90;45.40
46488;DHT22;32202;48.780;9.204;2023-04-03T15:20:32;11.00;45.30
46488;DHT22;32202;48.780;9.204;2023-04-03T15:22:59;11.00;45.10
46488;DHT22;32202;48.780;9.204;2023-04-03T15:25:28;11.10;44.30
46488;DHT22;32202;48.780;9.204;2023-04-03T15:27:54;10.80;44.60
46488;DHT22;32202;48.780;9.204;2023-04-03T15:30:20;10.70;44.60
46488;DHT22;32202;48.780;9.204;2023-04-03T15:32:46;10.50;44.60
46488;DHT22;32202;48.780;9.204;2023-04-03T15:35:12;10.30;45.20
46488;DHT22;32202;48.780;9.204;2023-04-03T15:37:38;10.10;45.70
46488;DHT22;32202;48.780;9.204;2023-04-03T15:40:04;9.90;46.20
46488;DHT22;32202;48.780;9.204;2023-04-03T15:42:30;9.60;46.70
46488;DHT22;32202;48.780;9.204;2023-04-03T15:44:55;9.40;47.30
46488;DHT22;32202;48.780;9.204;2023-04-03T15:47:21;9.30;47.80
46488;DHT22;32202;48.780;9.204;2023-04-03T15:49:46;9.10;48.50
46488;DHT22;32202;48.780;9.204;2023-04-03T15:52:12;9.20;48.40
46488;DHT22;32202;48.780;9.204;2023-04-03T15:54:37;9.20;48.40
46488;DHT22;32202;48.780;9.204;2023-04-03T15:57:03;9.30;48.10
46488;DHT22;32202;48.780;9.204;2023-04-03T15:59:28;9.20;47.80
46488;DHT22;32202;48.780;9.204;2023-04-03T16:01:56;9.20;48.10
46488;DHT22;32202;48.780;9.204;2023-04-03T16:04:21;9.30;47.70
46488;DHT22;32202;48.780;9.204;2023-04-03T16:06:47;9.40;47.30
46488;DHT22;32202;48.780;9.204;2023-04-03T16:09:15;9.10;47.00
46488;DHT22;32202;48.780;9.204;2023-04-03T16:11:40;9.30;47.60
46488;DHT22;32202;48.780;9.204;2023-04-03T16:14:06;9.40;47.50
46488;DHT22;32202;48.780;9.204;2023-04-03T16:16:32;9.40;46.50
46488;DHT22;32202;48.780;9.204;2023-04-03T16:18:58;9.20;47.20
46488;DHT22;32202;48.780;9.204;2023-04-03T16:21:23;9.10;47.00
46488;DHT22;32202;48.780;9.204;2023-04-03T16:23:49;9.00;46.70
46488;DHT22;32202;48.780;9.204;2023-04-03T16:26:14;8.80;46.40
46488;DHT22;32202;48.780;9.204;2023-04-03T16:28:40;8.70;46.60
46488;DHT22;32202;48.780;9.204;2023-04-03T16:31:06;8.60;47.00
46488;DHT22;32202;48.780;9.204;2023-04-03T16:33:32;8.50;47.20
46488;DHT22;32202;48.780;9.204;2023-04-03T16:35:58;8.50;47.20
46488;DHT22;32202;48.780;9.204;2023-04-03T16:38:23;8.50;47.30
46488;DHT22;32202;48.780;9.204;2023-04-03T16:40:49;8.50;47.70
46488;DHT22;32202;48.780;9.204;2023-04-03T16:43:15;8.50;48.00
46488;DHT22;32202;48.780;9.204;2023-04-03T16:45:41;8.60;47.80
46488;DHT22;32202;48.780;9.204;2023-04-03T16:48:07;8.70;47.50
46488;DHT22;32202;48.780;9.204;2023-04-03T16:50:33;8.80;47.50
46488;DHT22;32202;48.780;9.204;2023-04-03T16:52:58;8.80;47.70
46488;DHT22;32202;48.780;9.204;2023-04-03T16:55:24;8.80;48.30
46488;DHT22;32202;48.780;9.204;2023-04-03T16:57:49;8.90;48.70
46488;DHT22;32202;48.780;9.204;2023-04-03T17:00:15;8.90;48.30
46488;DHT22;32202;48.780;9.204;2023-04-03T17:02:41;8.90;47.50
46488;DHT22;32202;48.780;9.204;2023-04-03T17:05:07;8.90;48.20
46488;DHT22;32202;48.780;9.204;2023-04-03T17:07:32;8.90;48.30
46488;DHT22;32202;48.780;9.204;2023-04-03T17:09:58;8.80;48.30
46488;DHT22;32202;48.780;9.204;2023-04-03T17:12:23;8.70;48.10
46488;DHT22;32202;48.780;9.204;2023-04-03T17:14:49;8.60;48.40
46488;DHT22;32202;48.780;9.204;2023-04-03T17:17:15;8.60;48.60